Map

Track Data

SID SEASON NUMBER BASIN SUBBASIN NAME ISO_TIME NATURE LAT LON WMO_WIND WMO_PRES WMO_AGENCY TRACK_TYPE DIST2LAND LANDFALL IFLAG USA_AGENCY USA_ATCF_ID USA_LAT USA_LON USA_RECORD USA_STATUS USA_WIND USA_PRES USA_SSHS USA_R34_NE USA_R34_SE USA_R34_SW USA_R34_NW USA_R50_NE USA_R50_SE USA_R50_SW USA_R50_NW USA_R64_NE USA_R64_SE USA_R64_SW USA_R64_NW USA_POCI USA_ROCI USA_RMW USA_EYE TOKYO_LAT TOKYO_LON TOKYO_GRADE TOKYO_WIND TOKYO_PRES TOKYO_R50_DIR TOKYO_R50_LONG TOKYO_R50_SHORT TOKYO_R30_DIR TOKYO_R30_LONG TOKYO_R30_SHORT TOKYO_LAND CMA_LAT CMA_LON CMA_CAT CMA_WIND CMA_PRES HKO_LAT HKO_LON HKO_CAT HKO_WIND HKO_PRES NEWDELHI_LAT NEWDELHI_LON NEWDELHI_GRADE NEWDELHI_WIND NEWDELHI_PRES NEWDELHI_CI NEWDELHI_DP NEWDELHI_POCI REUNION_LAT REUNION_LON REUNION_TYPE REUNION_WIND REUNION_PRES REUNION_TNUM REUNION_CI REUNION_RMW REUNION_R34_NE REUNION_R34_SE REUNION_R34_SW REUNION_R34_NW REUNION_R50_NE REUNION_R50_SE REUNION_R50_SW REUNION_R50_NW REUNION_R64_NE REUNION_R64_SE REUNION_R64_SW REUNION_R64_NW BOM_LAT BOM_LON BOM_TYPE BOM_WIND BOM_PRES BOM_TNUM BOM_CI BOM_RMW BOM_R34_NE BOM_R34_SE BOM_R34_SW BOM_R34_NW BOM_R50_NE BOM_R50_SE BOM_R50_SW BOM_R50_NW BOM_R64_NE BOM_R64_SE BOM_R64_SW BOM_R64_NW BOM_ROCI BOM_POCI BOM_EYE BOM_POS_METHOD BOM_PRES_METHOD NADI_LAT NADI_LON NADI_CAT NADI_WIND NADI_PRES WELLINGTON_LAT WELLINGTON_LON WELLINGTON_WIND WELLINGTON_PRES DS824_LAT DS824_LON DS824_STAGE DS824_WIND DS824_PRES TD9636_LAT TD9636_LON TD9636_STAGE TD9636_WIND TD9636_PRES TD9635_LAT TD9635_LON TD9635_WIND TD9635_PRES TD9635_ROCI NEUMANN_LAT NEUMANN_LON NEUMANN_CLASS NEUMANN_WIND NEUMANN_PRES MLC_LAT MLC_LON MLC_CLASS MLC_WIND MLC_PRES USA_GUST BOM_GUST BOM_GUST_PER REUNION_GUST REUNION_GUST_PER USA_SEAHGT USA_SEARAD_NE USA_SEARAD_SE USA_SEARAD_SW USA_SEARAD_NW STORM_SPEED STORM_DIR
1874042S13080 1874 5 SI MM NOT_NAMED 1874-02-11 06:00:00 NR -12.6000 79.5000 reunion main 2076 2076 _____O________ -1 -12.6000 79.5000 99 9.90000 6 241
1874042S13080 1874 5 SI MM NOT_NAMED 1874-02-11 09:00:00 NR -12.7422 79.2328 main 2089 2089 _____P________ -1 -12.7422 79.2328 99 6 241
1874042S13080 1874 5 SI MM NOT_NAMED 1874-02-11 12:00:00 NR -12.8838 78.9669 main 2113 2113 _____P________ -1 -12.8838 78.9669 99 6 241
1874042S13080 1874 5 SI MM NOT_NAMED 1874-02-11 15:00:00 NR -13.0244 78.7043 main 2127 2127 _____P________ -1 -13.0244 78.7043 99 6 241
1874042S13080 1874 5 SI MM NOT_NAMED 1874-02-11 18:00:00 NR -13.1637 78.4465 main 2153 2153 _____P________ -1 -13.1637 78.4465 99 6 241
1874042S13080 1874 5 SI MM NOT_NAMED 1874-02-11 21:00:00 NR -13.3012 78.1955 main 2167 2167 _____P________ -1 -13.3012 78.1955 99 6 240
1874042S13080 1874 5 SI MM NOT_NAMED 1874-02-12 00:00:00 NR -13.4367 77.9529 main 2181 2181 _____P________ -1 -13.4367 77.9529 99 5 240
1874042S13080 1874 5 SI MM NOT_NAMED 1874-02-12 03:00:00 NR -13.5697 77.7205 main 2208 2208 _____P________ -1 -13.5697 77.7205 99 5 239
1874042S13080 1874 5 SI MM NOT_NAMED 1874-02-12 06:00:00 NR -13.7000 77.5000 reunion main 2219 2195 _____O________ -1 -13.7000 77.5000 99 9.90000 5 238
1874042S13080 1874 5 SI MM NOT_NAMED 1874-02-12 09:00:00 NR -13.8278 77.2925 main 2195 2170 _____P________ -1 -13.8278 77.2925 99 5 237
1874042S13080 1874 5 SI MM NOT_NAMED 1874-02-12 12:00:00 NR -13.9557 77.0962 main 2166 2142 _____P________ -1 -13.9557 77.0962 99 5 235
1874042S13080 1874 5 SI MM NOT_NAMED 1874-02-12 15:00:00 NR -14.0868 76.9082 main 2142 2118 _____P________ -1 -14.0868 76.9082 99 4 233
1874042S13080 1874 5 SI MM NOT_NAMED 1874-02-12 18:00:00 NR -14.2243 76.7260 main 2118 2100 _____P________ -1 -14.2243 76.7260 99 5 231
1874042S13080 1874 5 SI MM NOT_NAMED 1874-02-12 21:00:00 NR -14.3712 76.5468 main 2090 2076 _____P________ -1 -14.3712 76.5468 99 5 229
1874042S13080 1874 5 SI MM NOT_NAMED 1874-02-13 00:00:00 NR -14.5307 76.3679 main 2076 2048 _____P________ -1 -14.5307 76.3679 99 5 226
1874042S13080 1874 5 SI MM NOT_NAMED 1874-02-13 03:00:00 NR -14.7060 76.1865 main 2048 2020 _____P________ -1 -14.7060 76.1865 99 5 224
1874042S13080 1874 5 SI MM NOT_NAMED 1874-02-13 06:00:00 NR -14.9000 76.0000 reunion main 2020 1992 _____O________ -1 -14.9000 76.0000 99 9.90000 6 226
1874042S13080 1874 5 SI MM NOT_NAMED 1874-02-13 09:00:00 NR -15.1019 75.7574 main 1992 1954 _____P________ -1 -15.1019 75.7574 99 6 229
1874042S13080 1874 5 SI MM NOT_NAMED 1874-02-13 12:00:00 NR -15.3204 75.5057 main 1954 1926 _____P________ -1 -15.3204 75.5057 99 7 227
1874042S13080 1874 5 SI MM NOT_NAMED 1874-02-13 15:00:00 NR -15.5559 75.2536 main 1923 1885 _____P________ -1 -15.5559 75.2536 99 7 224
1874042S13080 1874 5 SI MM NOT_NAMED 1874-02-13 18:00:00 NR -15.8086 75.0101 main 1885 1855 _____P________ -1 -15.8086 75.0101 99 7 221
1874042S13080 1874 5 SI MM NOT_NAMED 1874-02-13 21:00:00 NR -16.0789 74.7840 main 1855 1825 _____P________ -1 -16.0789 74.7840 99 7 216
1874042S13080 1874 5 SI MM NOT_NAMED 1874-02-14 00:00:00 NR -16.3673 74.5843 main 1825 1795 _____P________ -1 -16.3673 74.5843 99 7 210
1874042S13080 1874 5 SI MM NOT_NAMED 1874-02-14 03:00:00 NR -16.6742 74.4199 main 1795 1776 _____P________ -1 -16.6742 74.4199 99 7 203
1874042S13080 1874 5 SI MM NOT_NAMED 1874-02-14 06:00:00 NR -17.0000 74.3000 reunion main 1776 1757 _____O________ -1 -17.0000 74.3000 99 9.90000 7 197
1874042S13080 1874 5 SI MM NOT_NAMED 1874-02-14 09:00:00 NR -17.3498 74.2086 main 1757 1747 _____P________ -1 -17.3498 74.2086 99 7 191
1874042S13080 1874 5 SI MM NOT_NAMED 1874-02-14 12:00:00 NR -17.7220 74.1564 main 1747 1728 _____P________ -1 -17.7220 74.1564 99 8 184
1874042S13080 1874 5 SI MM NOT_NAMED 1874-02-14 15:00:00 NR -18.1108 74.1439 main 1728 1724 _____P________ -1 -18.1108 74.1439 99 8 0
1874042S13080 1874 5 SI MM NOT_NAMED 1874-02-14 18:00:00 NR -18.5104 74.1718 main 1731 1724 _____P________ -1 -18.5104 74.1718 99 8 174
1874042S13080 1874 5 SI MM NOT_NAMED 1874-02-14 21:00:00 NR -18.9149 74.2406 main 1724 1724 _____P________ -1 -18.9149 74.2406 99 8 168
1874042S13080 1874 5 SI MM NOT_NAMED 1874-02-15 00:00:00 NR -19.3186 74.3512 main 1739 1735 _____P________ -1 -19.3186 74.3512 99 8 163
1874042S13080 1874 5 SI MM NOT_NAMED 1874-02-15 03:00:00 NR -19.7156 74.5040 main 1745 1744 _____P________ -1 -19.7156 74.5040 99 9 157
1874042S13080 1874 5 SI MM NOT_NAMED 1874-02-15 06:00:00 NR -20.1000 74.7000 reunion main 1762 1762 _____O________ -1 -20.1000 74.7000 99 9.90000 9 151
1874042S13080 1874 5 SI MM NOT_NAMED 1874-02-15 09:00:00 NR -20.4838 74.9508 main 1791 1791 _____P________ -1 -20.4838 74.9508 99 9 146
1874042S13080 1874 5 SI MM NOT_NAMED 1874-02-15 12:00:00 NR -20.8613 75.2534 main 1821 1821 _____P________ -1 -20.8613 75.2534 99 10 141
1874042S13080 1874 5 SI MM NOT_NAMED 1874-02-15 15:00:00 NR -21.2271 75.5944 main 1852 1852 _____P________ -1 -21.2271 75.5944 99 10 137
1874042S13080 1874 5 SI MM NOT_NAMED 1874-02-15 18:00:00 NR -21.5760 75.9604 main 1894 1894 _____P________ -1 -21.5760 75.9604 99 10 134
1874042S13080 1874 5 SI MM NOT_NAMED 1874-02-15 21:00:00 NR -21.9027 76.3380 main 1925 1925 _____P________ -1 -21.9027 76.3380 99 9 132
1874042S13080 1874 5 SI MM NOT_NAMED 1874-02-16 00:00:00 NR -22.2022 76.7131 main 1968 1968 _____P________ -1 -22.2022 76.7131 99 9 130
1874042S13080 1874 5 SI MM NOT_NAMED 1874-02-16 03:00:00 NR -22.4696 77.0718 main 2011 2011 _____P________ -1 -22.4696 77.0718 99 8 128
1874042S13080 1874 5 SI MM NOT_NAMED 1874-02-16 06:00:00 NR -22.7000 77.4000 reunion main 2043 2043 _____O________ -1 -22.7000 77.4000 99 9.90000 7 127
1874042S13080 1874 5 SI MM NOT_NAMED 1874-02-16 09:00:00 NR -22.8904 77.6867 main 2075 2075 _____P________ -1 -22.8904 77.6867 99 6 125
1874042S13080 1874 5 SI MM NOT_NAMED 1874-02-16 12:00:00 NR -23.0445 77.9339 main 2096 2096 _____P________ -1 -23.0445 77.9339 99 5 123
1874042S13080 1874 5 SI MM NOT_NAMED 1874-02-16 15:00:00 NR -23.1676 78.1471 main 2119 2119 _____P________ -1 -23.1676 78.1471 99 4 121
1874042S13080 1874 5 SI MM NOT_NAMED 1874-02-16 18:00:00 NR -23.2649 78.3320 main 2140 2140 _____P________ -1 -23.2649 78.3320 99 4 119
1874042S13080 1874 5 SI MM NOT_NAMED 1874-02-16 21:00:00 NR -23.3417 78.4939 main 2160 2160 _____P________ -1 -23.3417 78.4939 99 3 116
1874042S13080 1874 5 SI MM NOT_NAMED 1874-02-17 00:00:00 NR -23.4030 78.6388 main 2171 2171 _____P________ -1 -23.4030 78.6388 99 3 114
1874042S13080 1874 5 SI MM NOT_NAMED 1874-02-17 03:00:00 NR -23.4541 78.7722 main 2193 2193 _____P________ -1 -23.4541 78.7722 99 3 112
1874042S13080 1874 5 SI MM NOT_NAMED 1874-02-17 06:00:00 NR -23.5000 78.9000 reunion main 2203 _____O________ -1 -23.5000 78.9000 99 9.90000 3 112

About IBTrACS Database

This database is a web-friendly format of International Best Track Archive for Climate Stewardship (IBTrACS), a global best track data archive curated by NOAA dating back to 1842.

Updated: 2021-10-08